Time;durP1;ratioP1;P1;durP2;ratioP2;P2;SDS_P1;SDS_P2;PMS_P1;PMS_P2;Temp;Humidity;BMP_temperature;BMP_pressure;BME280_temperature;BME280_humidity;BME280_pressure;Samples;Min_cycle;Max_cycle;Signal;HPM_P1;HPM_P2
2022/12/18 00:01:21;;;;;;;12.48;7.10;;;-6.10;99.90;;;;;;4948580;28;20034;-70
2022/12/18 00:03:47;;;;;;;17.20;8.90;;;-6.10;99.90;;;;;;4946096;28;20385;-71
2022/12/18 00:06:13;;;;;;;12.90;4.22;;;-6.10;99.90;;;;;;4952402;29;20027;-70
2022/12/18 00:08:40;;;;;;;11.60;6.28;;;-6.10;99.90;;;;;;4941781;29;20039;-71
2022/12/18 00:11:11;;;;;;;8.20;6.43;;;-6.20;99.90;;;;;;4950704;29;20031;-71
2022/12/18 00:13:37;;;;;;;9.55;7.00;;;-6.20;99.90;;;;;;4947033;29;20035;-71
2022/12/18 00:16:10;;;;;;;5.78;4.32;;;-6.30;99.90;;;;;;4950357;29;20113;-71
2022/12/18 00:18:35;;;;;;;5.40;4.93;;;-6.30;99.90;;;;;;4947092;28;20610;-71
2022/12/18 00:21:06;;;;;;;6.07;5.32;;;-6.40;99.90;;;;;;4949840;29;20111;-71
2022/12/18 00:23:34;;;;;;;18.40;5.28;;;-6.60;99.90;;;;;;4947198;29;20086;-71
2022/12/18 00:26:01;;;;;;;4.53;3.45;;;-6.50;99.90;;;;;;4950223;29;20032;-71
2022/12/18 00:28:27;;;;;;;10.13;7.18;;;-6.50;99.90;;;;;;4948069;28;20046;-70
2022/12/18 00:31:09;;;;;;;7.25;5.03;;;-6.60;99.90;;;;;;4963435;28;20486;-70
2022/12/18 00:33:36;;;;;;;9.07;5.00;;;-6.60;99.90;;;;;;4946839;28;20039;-71
2022/12/18 00:36:10;;;;;;;13.35;7.97;;;-6.60;99.90;;;;;;4950106;29;20031;-71
2022/12/18 00:38:38;;;;;;;12.15;6.57;;;-6.80;99.90;;;;;;4945574;29;20031;-71
2022/12/18 00:44:01;;;;;;;15.80;9.02;;;-6.80;99.90;;;;;;4942586;29;20053;-71
2022/12/18 00:46:27;;;;;;;13.95;6.72;;;-6.70;99.90;;;;;;4952273;29;20105;-71
2022/12/18 00:48:52;;;;;;;14.88;6.75;;;-6.70;99.90;;;;;;4944403;28;20461;-71
2022/12/18 00:51:18;;;;;;;14.57;7.78;;;-6.70;99.90;;;;;;4951903;29;20039;-71
2022/12/18 00:53:44;;;;;;;14.52;9.02;;;-6.80;99.90;;;;;;4945268;28;20129;-71
2022/12/18 00:56:09;;;;;;;12.50;6.45;;;-6.70;99.90;;;;;;4950977;29;20039;-71
2022/12/18 00:58:38;;;;;;;7.82;6.45;;;-6.70;99.90;;;;;;4946507;28;20040;-71
2022/12/18 01:01:05;;;;;;;14.10;8.45;;;-6.70;99.90;;;;;;4958120;23;20078;-73
2022/12/18 01:03:31;;;;;;;9.57;6.45;;;-6.60;99.90;;;;;;4946682;29;20039;-73
2022/12/18 01:05:56;;;;;;;9.48;5.65;;;-6.60;99.90;;;;;;4927331;29;20038;-73
2022/12/18 01:08:22;;;;;;;5.43;4.85;;;-6.70;99.90;;;;;;4944175;29;20066;-73
2022/12/18 01:10:48;;;;;;;10.85;5.63;;;-6.70;99.90;;;;;;4939523;29;20046;-73
2022/12/18 01:13:14;;;;;;;7.07;4.25;;;-6.90;99.90;;;;;;4916560;29;20043;-73
2022/12/18 01:15:40;;;;;;;10.07;5.68;;;-6.90;99.90;;;;;;4932620;29;20036;-73
2022/12/18 01:18:06;;;;;;;8.00;6.95;;;-6.80;99.90;;;;;;4931035;29;20036;-73
2022/12/18 01:20:33;;;;;;;12.48;6.15;;;-7.10;99.90;;;;;;4934510;29;20612;-73
2022/12/18 01:22:58;;;;;;;12.20;5.80;;;-7.20;99.90;;;;;;4924560;29;20032;-73
2022/12/18 01:25:24;;;;;;;10.45;8.32;;;-7.30;99.90;;;;;;4933438;29;20032;-73
2022/12/18 01:27:50;;;;;;;5.82;5.30;;;-7.50;99.90;;;;;;4924177;29;20028;-74
2022/12/18 01:30:16;;;;;;;8.13;5.22;;;-7.50;99.90;;;;;;4931886;29;20050;-74
2022/12/18 01:32:42;;;;;;;5.53;4.97;;;-7.50;99.90;;;;;;4925280;29;20040;-73
2022/12/18 01:35:08;;;;;;;10.30;5.85;;;-7.30;99.90;;;;;;4930902;29;20055;-73
2022/12/18 01:37:34;;;;;;;19.48;6.85;;;-7.30;99.90;;;;;;4926673;29;20460;-74
2022/12/18 01:39:59;;;;;;;14.27;6.05;;;-7.30;99.90;;;;;;4929650;29;20055;-73
2022/12/18 01:42:25;;;;;;;8.82;4.65;;;-7.20;99.90;;;;;;4910278;29;20151;-73
2022/12/18 01:45:15;;;;;;;15.35;7.47;;;-7.20;99.90;;;;;;4928538;29;20502;-74
2022/12/18 01:48:02;;;;;;;7.75;5.90;;;-7.20;99.90;;;;;;4925310;29;20067;-73
2022/12/18 01:50:41;;;;;;;4.80;2.45;;;-7.20;99.90;;;;;;4918312;29;20043;-73
2022/12/18 01:53:14;;;;;;;8.65;6.30;;;-7.10;99.90;;;;;;4923610;29;20043;-73
2022/12/18 01:55:56;;;;;;;14.00;6.93;;;-7.20;99.90;;;;;;4916260;29;20101;-73
2022/12/18 01:58:41;;;;;;;8.48;7.10;;;-7.20;99.90;;;;;;4917651;29;20087;-72
2022/12/18 02:01:07;;;;;;;6.45;5.75;;;-7.20;99.90;;;;;;4878535;29;20032;-72
2022/12/18 02:03:33;;;;;;;9.48;6.18;;;-7.10;99.90;;;;;;4919646;29;20040;-73
2022/12/18 02:06:08;;;;;;;7.25;4.82;;;-7.20;99.90;;;;;;4911725;29;20028;-73
2022/12/18 02:08:57;;;;;;;8.50;6.55;;;-7.10;99.90;;;;;;4920949;29;20040;-73
2022/12/18 02:12:03;;;;;;;12.55;6.28;;;-7.00;99.90;;;;;;4922181;29;20028;-73
2022/12/18 02:15:24;;;;;;;11.18;6.32;;;-7.10;99.90;;;;;;4924407;29;20048;-73
2022/12/18 02:18:04;;;;;;;10.10;6.75;;;-7.00;99.90;;;;;;4905503;29;20119;-73
2022/12/18 02:20:39;;;;;;;19.40;7.53;;;-7.10;99.90;;;;;;4907763;29;20384;-73
2022/12/18 02:23:19;;;;;;;11.20;6.63;;;-7.10;99.90;;;;;;4912628;29;20123;-73
2022/12/18 02:26:11;;;;;;;8.13;6.30;;;-7.00;99.90;;;;;;4918858;29;20700;-73
2022/12/18 02:28:49;;;;;;;;;;;-7.10;99.90;;;;;;4910554;29;20051;-73
2022/12/18 02:31:21;;;;;;;13.55;5.57;;;-7.20;99.90;;;;;;4908736;29;19929;-72
2022/12/18 02:33:49;;;;;;;15.50;6.60;;;-7.20;99.90;;;;;;4891266;29;20122;-73
2022/12/18 02:36:18;;;;;;;19.83;6.90;;;-7.10;99.90;;;;;;4905311;29;20032;-74
2022/12/18 02:38:45;;;;;;;16.65;7.93;;;-7.10;99.90;;;;;;4909447;29;20479;-74
2022/12/18 02:41:14;;;;;;;8.25;4.55;;;-7.10;99.90;;;;;;4907637;29;20031;-74
2022/12/18 02:43:46;;;;;;;12.75;6.03;;;-7.20;99.90;;;;;;4909148;29;20406;-73
2022/12/18 02:46:36;;;;;;;8.48;7.35;;;-7.20;99.90;;;;;;4908509;29;20064;-74
2022/12/18 02:49:18;;;;;;;13.65;6.25;;;-7.30;99.90;;;;;;4908620;29;20032;-74
2022/12/18 02:52:02;;;;;;;11.95;8.77;;;-7.20;99.90;;;;;;4922205;29;20043;-74
2022/12/18 02:54:59;;;;;;;12.25;5.05;;;-7.20;99.90;;;;;;4906925;29;20055;-74
2022/12/18 02:57:40;;;;;;;10.95;5.50;;;-7.30;99.90;;;;;;4891250;29;20492;-74
2022/12/18 03:00:14;;;;;;;9.47;5.50;;;-7.20;99.90;;;;;;4897594;29;20032;-74
2022/12/18 03:02:47;;;;;;;13.95;6.90;;;-7.20;99.90;;;;;;4925149;29;20062;-74
2022/12/18 03:05:20;;;;;;;6.05;4.82;;;-7.20;99.90;;;;;;4908344;29;20048;-75
2022/12/18 03:07:58;;;;;;;7.07;5.28;;;-7.30;99.90;;;;;;4898699;29;20405;-75
2022/12/18 03:10:30;;;;;;;13.25;8.27;;;-7.30;99.90;;;;;;4914794;29;20043;-74
2022/12/18 03:13:36;;;;;;;16.55;7.70;;;-7.40;99.90;;;;;;4908923;29;20493;-74
2022/12/18 03:16:05;;;;;;;5.57;3.55;;;-7.40;99.90;;;;;;4893510;29;20043;-74
2022/12/18 03:19:03;;;;;;;9.27;2.60;;;-7.40;99.90;;;;;;4925454;29;20059;-74
2022/12/18 03:21:45;;;;;;;12.52;4.38;;;-7.40;99.90;;;;;;4865972;29;20533;-75
2022/12/18 03:24:11;;;;;;;7.18;4.65;;;-7.40;99.90;;;;;;4912504;29;20044;-75
2022/12/18 03:26:44;;;;;;;9.65;6.53;;;-7.50;99.90;;;;;;4921729;29;20110;-74
2022/12/18 03:29:18;;;;;;;4.18;3.65;;;-7.60;99.90;;;;;;4912767;29;20031;-74
2022/12/18 03:31:56;;;;;;;14.73;6.28;;;-7.60;99.90;;;;;;4901382;29;20503;-74
2022/12/18 03:34:29;;;;;;;7.25;4.13;;;-7.50;99.90;;;;;;4900047;29;20068;-74
2022/12/18 03:36:55;;;;;;;7.50;6.78;;;-7.50;99.90;;;;;;4923375;29;20360;-74
2022/12/18 03:39:21;;;;;;;8.15;4.65;;;-7.60;99.90;;;;;;4903462;29;20036;-74
2022/12/18 03:42:18;;;;;;;10.32;7.50;;;-7.60;99.90;;;;;;4904987;29;20036;-74
2022/12/18 03:45:09;;;;;;;7.78;6.65;;;-7.70;99.90;;;;;;4888755;29;20079;-74
2022/12/18 03:47:58;;;;;;;14.75;5.03;;;-7.70;99.90;;;;;;4910806;29;20028;-75
2022/12/18 03:50:55;;;;;;;10.02;4.32;;;-7.90;99.90;;;;;;4871851;29;20040;-75
2022/12/18 03:53:47;;;;;;;8.48;5.53;;;-7.90;99.90;;;;;;4929180;29;20094;-74
2022/12/18 03:56:16;;;;;;;10.25;5.95;;;-7.90;99.90;;;;;;4927996;29;20042;-74
2022/12/18 03:58:44;;;;;;;6.50;4.30;;;-8.00;99.90;;;;;;4912090;29;20027;-74
2022/12/18 04:01:13;;;;;;;8.85;5.47;;;-8.00;99.90;;;;;;4910523;29;20089;-74
2022/12/18 04:03:41;;;;;;;6.22;5.65;;;-8.00;99.90;;;;;;4912059;29;20785;-75
2022/12/18 04:06:07;;;;;;;10.70;5.38;;;-8.00;99.90;;;;;;4910937;29;20074;-74
2022/12/18 04:08:34;;;;;;;12.43;7.47;;;-8.00;99.90;;;;;;4928820;29;20031;-73
2022/12/18 04:11:02;;;;;;;9.00;4.18;;;-7.90;99.90;;;;;;4910509;29;20122;-73
2022/12/18 04:13:32;;;;;;;11.07;4.47;;;-7.90;99.90;;;;;;4911703;29;20031;-74
2022/12/18 04:15:58;;;;;;;7.50;4.75;;;-7.80;99.90;;;;;;4911040;29;20056;-74
2022/12/18 04:18:24;;;;;;;10.38;5.45;;;-7.90;99.90;;;;;;4928651;29;20070;-73
2022/12/18 04:20:49;;;;;;;10.50;5.63;;;-7.80;99.90;;;;;;4927067;29;20047;-74
2022/12/18 04:23:15;;;;;;;6.70;4.72;;;-7.80;99.90;;;;;;4928514;29;20040;-74
2022/12/18 04:25:41;;;;;;;5.65;4.57;;;-7.90;99.90;;;;;;4927287;29;20507;-74
2022/12/18 04:28:06;;;;;;;6.78;4.85;;;-7.80;99.90;;;;;;4928690;29;20047;-74
2022/12/18 04:30:32;;;;;;;15.60;7.28;;;-7.80;99.90;;;;;;4927324;29;20197;-75
2022/12/18 04:32:58;;;;;;;11.93;7.53;;;-7.90;99.90;;;;;;4927054;29;20031;-74
2022/12/18 04:35:23;;;;;;;10.52;2.85;;;-8.00;99.90;;;;;;4928079;29;20118;-75
2022/12/18 04:37:49;;;;;;;15.82;5.32;;;-8.20;99.90;;;;;;4928291;29;20037;-72
2022/12/18 04:40:15;;;;;;;8.55;4.53;;;-8.10;99.90;;;;;;4924840;29;20099;-73
2022/12/18 04:42:41;;;;;;;9.77;6.00;;;-8.10;99.90;;;;;;4936045;29;20090;-73
2022/12/18 04:45:07;;;;;;;12.68;5.20;;;-8.20;99.90;;;;;;4926947;29;20036;-73
2022/12/18 04:47:33;;;;;;;15.55;5.55;;;-8.10;99.90;;;;;;4917392;29;20028;-74
2022/12/18 04:49:59;;;;;;;15.00;5.03;;;-8.20;99.90;;;;;;4910246;29;20051;-74
2022/12/18 04:52:25;;;;;;;14.73;5.05;;;-8.10;99.90;;;;;;4933486;29;20046;-74
2022/12/18 04:54:50;;;;;;;22.60;9.15;;;-8.00;99.90;;;;;;4928525;29;20036;-74
2022/12/18 04:57:17;;;;;;;7.70;5.22;;;-8.10;99.90;;;;;;4915582;29;20394;-74
2022/12/18 04:59:44;;;;;;;14.93;5.43;;;-8.00;99.90;;;;;;4929686;29;20032;-74
2022/12/18 05:02:10;;;;;;;5.57;4.53;;;-8.00;99.90;;;;;;4931344;29;20070;-74
2022/12/18 05:04:35;;;;;;;10.60;7.07;;;-8.10;99.90;;;;;;4930299;29;20479;-74
2022/12/18 05:07:01;;;;;;;11.20;6.70;;;-8.10;99.90;;;;;;4930335;29;20079;-73
2022/12/18 05:09:27;;;;;;;14.38;8.00;;;-8.00;99.90;;;;;;4914395;29;20499;-75
2022/12/18 05:11:53;;;;;;;8.70;5.05;;;-8.00;99.90;;;;;;4928749;29;20028;-74
2022/12/18 05:14:19;;;;;;;6.50;5.93;;;-7.90;99.90;;;;;;4932323;29;20403;-74
2022/12/18 05:16:45;;;;;;;22.13;6.80;;;-7.90;99.90;;;;;;4915294;29;20088;-74
2022/12/18 05:19:11;;;;;;;13.13;6.28;;;-7.80;99.90;;;;;;4923156;29;20065;-74
2022/12/18 05:21:37;;;;;;;14.45;5.68;;;-7.80;99.90;;;;;;4927114;29;20146;-74
2022/12/18 05:24:02;;;;;;;13.70;4.78;;;-7.80;99.90;;;;;;4932465;29;20044;-74
2022/12/18 05:26:28;;;;;;;11.90;8.02;;;-7.70;99.90;;;;;;4927705;29;20040;-74
2022/12/18 05:28:57;;;;;;;9.27;7.57;;;-7.70;99.90;;;;;;4932552;29;20040;-74
2022/12/18 05:31:22;;;;;;;8.52;3.80;;;-7.70;99.90;;;;;;4926953;29;20063;-74
2022/12/18 05:33:51;;;;;;;6.65;5.07;;;-7.60;99.90;;;;;;4932330;29;20459;-74
2022/12/18 05:36:17;;;;;;;8.77;5.10;;;-7.70;99.90;;;;;;4927129;29;20056;-74
2022/12/18 05:38:43;;;;;;;10.18;4.90;;;-7.60;99.90;;;;;;4915269;29;20047;-74
2022/12/18 05:41:09;;;;;;;13.07;6.57;;;-7.60;99.90;;;;;;4926802;29;20523;-74
2022/12/18 05:43:38;;;;;;;22.23;8.13;;;-7.60;99.90;;;;;;4915493;29;20032;-74
2022/12/18 05:46:11;;;;;;;11.25;7.07;;;-7.60;99.90;;;;;;4926457;29;20082;-74
2022/12/18 05:48:37;;;;;;;8.73;7.28;;;-7.60;99.90;;;;;;4910244;29;20407;-74
2022/12/18 05:51:09;;;;;;;11.13;5.72;;;-7.60;99.90;;;;;;4929455;29;20035;-74
2022/12/18 05:53:36;;;;;;;15.85;8.10;;;-7.60;99.90;;;;;;4910210;29;20048;-73
2022/12/18 05:56:05;;;;;;;15.35;7.45;;;-7.60;99.90;;;;;;4929643;29;20032;-74
2022/12/18 05:58:32;;;;;;;11.95;5.95;;;-7.60;99.90;;;;;;4925913;29;20023;-74
2022/12/18 06:01:07;;;;;;;9.40;5.00;;;-7.70;99.90;;;;;;4912290;29;20070;-74
2022/12/18 06:03:32;;;;;;;10.75;6.65;;;-7.70;99.90;;;;;;4910088;29;20027;-74
2022/12/18 06:05:58;;;;;;;10.25;6.15;;;-7.70;99.90;;;;;;4929770;29;20396;-74
2022/12/18 06:08:23;;;;;;;8.60;6.85;;;-7.70;99.90;;;;;;4926563;29;20114;-74
2022/12/18 06:11:04;;;;;;;8.82;6.82;;;-7.70;99.90;;;;;;4929005;29;20036;-75
2022/12/18 06:13:29;;;;;;;18.50;6.82;;;-7.70;99.90;;;;;;4911522;29;20120;-73
2022/12/18 06:15:55;;;;;;;7.63;5.15;;;-7.70;99.90;;;;;;4925827;29;20102;-74
2022/12/18 06:18:21;;;;;;;4.20;3.75;;;-7.60;99.90;;;;;;4926380;29;20410;-74
2022/12/18 06:20:58;;;;;;;19.13;4.80;;;-7.60;99.90;;;;;;4928925;29;20035;-74
2022/12/18 06:23:23;;;;;;;4.82;3.83;;;-7.60;99.90;;;;;;4909691;29;20075;-75
2022/12/18 06:25:50;;;;;;;10.02;6.50;;;-7.70;99.90;;;;;;4928917;29;20070;-74
2022/12/18 06:28:15;;;;;;;9.73;4.65;;;-7.60;99.90;;;;;;4907060;29;20043;-74
2022/12/18 06:30:44;;;;;;;26.13;7.88;;;-7.70;99.90;;;;;;4922971;29;20122;-73
2022/12/18 06:33:10;;;;;;;24.27;5.68;;;-7.70;99.90;;;;;;4916755;29;20044;-74
2022/12/18 06:35:35;;;;;;;13.25;7.63;;;-7.70;99.90;;;;;;4923000;29;20483;-73
2022/12/18 06:38:02;;;;;;;7.13;5.15;;;-7.60;99.90;;;;;;4931740;29;20408;-74
2022/12/18 06:40:28;;;;;;;5.85;5.35;;;-7.50;99.90;;;;;;4907910;29;20020;-74
2022/12/18 06:42:54;;;;;;;24.02;6.70;;;-7.50;99.90;;;;;;4914988;29;20058;-74
2022/12/18 06:45:20;;;;;;;14.45;7.93;;;-7.40;99.90;;;;;;4897086;29;20369;-74
2022/12/18 06:47:45;;;;;;;18.38;7.97;;;-7.40;99.90;;;;;;4932980;29;20035;-72
2022/12/18 06:50:13;;;;;;;12.88;7.90;;;-7.30;99.90;;;;;;4914571;29;20028;-73
2022/12/18 06:52:40;;;;;;;29.65;7.03;;;-7.30;99.90;;;;;;4928559;29;20476;-74
2022/12/18 06:55:10;;;;;;;20.38;7.47;;;-7.30;99.90;;;;;;4906882;29;20043;-72
2022/12/18 06:57:37;;;;;;;19.63;9.33;;;-7.30;99.90;;;;;;4919867;29;20579;-72
2022/12/18 07:00:05;;;;;;;13.07;10.52;;;-7.30;99.90;;;;;;4918202;29;20315;-70
2022/12/18 07:02:31;;;;;;;12.20;5.45;;;-7.30;99.90;;;;;;4943007;23;20051;-70
2022/12/18 07:04:56;;;;;;;16.40;8.27;;;-7.30;99.90;;;;;;4944978;29;20034;-69
2022/12/18 07:07:22;;;;;;;12.95;6.30;;;-7.30;99.90;;;;;;4946416;28;20499;-68
2022/12/18 07:09:50;;;;;;;19.30;9.10;;;-7.30;99.90;;;;;;4946760;28;20039;-68
2022/12/18 07:12:16;;;;;;;10.65;5.65;;;-7.20;99.90;;;;;;4948011;28;20039;-71
2022/12/18 07:14:42;;;;;;;8.00;5.38;;;-7.20;99.90;;;;;;4943520;29;20035;-71
2022/12/18 07:17:08;;;;;;;15.18;9.52;;;-7.20;99.90;;;;;;4952793;28;20054;-69
2022/12/18 07:19:34;;;;;;;33.15;8.05;;;-7.30;99.90;;;;;;4952357;28;20028;-69
2022/12/18 07:22:00;;;;;;;15.82;5.30;;;-7.30;99.90;;;;;;4950597;28;20043;-68
2022/12/18 07:24:26;;;;;;;4.63;4.25;;;-7.30;99.90;;;;;;4950908;28;20399;-69
2022/12/18 07:26:52;;;;;;;8.65;6.03;;;-7.40;99.90;;;;;;4947983;29;20028;-68
2022/12/18 07:29:17;;;;;;;9.63;5.30;;;-7.40;99.90;;;;;;4949022;28;20461;-71
2022/12/18 07:31:43;;;;;;;7.18;6.35;;;-7.40;99.90;;;;;;4949047;29;20043;-71
2022/12/18 07:34:14;;;;;;;10.07;6.50;;;-7.40;99.90;;;;;;4952090;29;20035;-73
2022/12/18 07:36:40;;;;;;;14.02;7.28;;;-7.40;99.90;;;;;;4952383;29;20035;-66
2022/12/18 07:39:06;;;;;;;8.00;6.55;;;-7.40;99.90;;;;;;4951355;29;20086;-65
2022/12/18 07:41:31;;;;;;;7.53;3.70;;;-7.40;99.90;;;;;;4948068;28;20031;-69
2022/12/18 07:43:57;;;;;;;5.07;4.60;;;-7.40;99.90;;;;;;4954005;28;20039;-69
2022/12/18 07:46:23;;;;;;;12.38;5.90;;;-7.30;99.90;;;;;;4951026;28;20122;-69
2022/12/18 07:48:49;;;;;;;12.23;5.10;;;-7.30;99.90;;;;;;4952142;28;20050;-68
2022/12/18 07:51:14;;;;;;;26.55;9.05;;;-7.30;99.90;;;;;;4951981;28;20046;-69
2022/12/18 07:53:40;;;;;;;9.65;7.63;;;-7.30;99.90;;;;;;4952422;28;20043;-69
2022/12/18 07:56:09;;;;;;;10.40;6.00;;;-7.30;99.90;;;;;;4951178;28;20070;-69
2022/12/18 07:58:36;;;;;;;5.57;4.97;;;-7.30;99.90;;;;;;4951999;28;20130;-69
2022/12/18 08:01:08;;;;;;;13.50;8.10;;;-7.20;99.90;;;;;;4950055;28;20027;-69
2022/12/18 08:03:34;;;;;;;6.95;4.03;;;-7.20;99.90;;;;;;4951990;28;20041;-69
2022/12/18 08:06:05;;;;;;;9.10;7.13;;;-7.20;99.90;;;;;;4950042;28;20097;-69
2022/12/18 08:08:31;;;;;;;10.00;5.15;;;-7.20;99.90;;;;;;4949137;28;20118;-69
2022/12/18 08:10:57;;;;;;;18.83;5.47;;;-7.20;99.90;;;;;;4950983;28;20043;-69
2022/12/18 08:13:24;;;;;;;14.65;6.90;;;-7.10;99.90;;;;;;4951623;28;20487;-69
2022/12/18 08:16:05;;;;;;;15.63;6.35;;;-7.10;99.90;;;;;;4950542;28;20039;-69
2022/12/18 08:18:36;;;;;;;17.85;5.63;;;-7.10;99.90;;;;;;4950845;29;20495;-69
2022/12/18 08:21:18;;;;;;;12.70;7.22;;;-7.20;99.90;;;;;;4950714;28;20495;-69
2022/12/18 08:23:44;;;;;;;;;;;-7.20;99.90;;;;;;4940754;29;20057;-70
2022/12/18 08:26:11;;;;;;;16.33;5.40;;;-7.30;99.90;;;;;;4954754;28;19922;-68
2022/12/18 08:28:37;;;;;;;15.32;5.97;;;-7.20;99.90;;;;;;4954412;28;20321;-68
2022/12/18 08:31:03;;;;;;;12.55;5.22;;;-7.20;99.90;;;;;;4953436;28;20126;-68
2022/12/18 08:33:29;;;;;;;6.70;5.18;;;-7.20;99.90;;;;;;4953850;29;20103;-68
2022/12/18 08:35:55;;;;;;;30.63;6.95;;;-7.20;99.90;;;;;;4953394;28;20043;-68
2022/12/18 08:38:21;;;;;;;9.32;7.50;;;-7.20;99.90;;;;;;4950015;28;20495;-70
2022/12/18 08:40:46;;;;;;;7.93;7.00;;;-7.10;99.90;;;;;;4949583;28;20063;-70
2022/12/18 08:45:57;;;;;;;12.98;8.35;;;-7.00;99.90;;;;;;4939054;28;20031;-72
2022/12/18 08:48:22;;;;;;;12.77;5.40;;;-6.80;99.90;;;;;;4951862;28;20042;-69
2022/12/18 08:50:59;;;;;;;18.77;8.43;;;-6.80;99.90;;;;;;4952140;28;20043;-68
2022/12/18 08:53:25;;;;;;;15.48;9.30;;;-6.80;99.90;;;;;;4953942;29;20082;-70
2022/12/18 08:55:51;;;;;;;24.08;8.85;;;-6.70;99.90;;;;;;4947721;28;20376;-68
2022/12/18 08:58:17;;;;;;;9.85;5.13;;;-6.70;99.90;;;;;;4949923;28;20531;-67
2022/12/18 09:00:43;;;;;;;7.00;5.65;;;-6.80;99.90;;;;;;4943230;28;20094;-67
2022/12/18 09:03:18;;;;;;;7.35;5.53;;;-6.60;99.90;;;;;;4950742;28;20118;-67
2022/12/18 09:05:46;;;;;;;29.90;5.82;;;-6.60;99.90;;;;;;4949713;29;20407;-67
2022/12/18 09:08:12;;;;;;;11.73;8.38;;;-6.50;99.90;;;;;;4951977;28;20395;-67
2022/12/18 09:10:44;;;;;;;16.42;5.43;;;-6.30;99.90;;;;;;4954618;29;20039;-66
2022/12/18 09:13:11;;;;;;;22.92;6.20;;;-6.20;99.90;;;;;;4953262;28;20035;-67
2022/12/18 09:15:49;;;;;;;15.13;8.40;;;-6.20;99.90;;;;;;4953732;29;20495;-72
2022/12/18 09:18:18;;;;;;;26.45;13.40;;;-6.00;99.90;;;;;;4951416;28;20035;-70
2022/12/18 09:20:44;;;;;;;14.43;9.35;;;-5.90;99.90;;;;;;4951896;28;20036;-70
2022/12/18 09:23:11;;;;;;;14.30;8.45;;;-5.80;99.90;;;;;;4951359;28;20071;-70
2022/12/18 09:25:37;;;;;;;10.15;6.63;;;-6.00;99.90;;;;;;4949336;29;20050;-70
2022/12/18 09:28:16;;;;;;;14.15;6.88;;;-5.80;99.90;;;;;;4951558;28;20035;-70
2022/12/18 09:30:48;;;;;;;6.88;5.88;;;-5.70;99.90;;;;;;4953729;28;20319;-69
2022/12/18 09:33:15;;;;;;;19.55;9.05;;;-5.60;99.90;;;;;;4950158;28;20031;-70
2022/12/18 09:35:44;;;;;;;18.60;8.52;;;-5.50;99.90;;;;;;4951703;28;20122;-70
2022/12/18 09:38:19;;;;;;;14.20;8.18;;;-5.80;99.90;;;;;;4947627;28;20046;-69
2022/12/18 09:40:53;;;;;;;15.10;10.40;;;-5.80;99.90;;;;;;4944491;28;20039;-69
2022/12/18 09:43:29;;;;;;;19.30;8.85;;;-5.70;99.90;;;;;;4950888;28;20042;-70
2022/12/18 09:46:02;;;;;;;9.70;8.38;;;-5.40;99.90;;;;;;4951774;29;20031;-70
2022/12/18 09:48:35;;;;;;;27.40;10.13;;;-5.30;99.90;;;;;;4951260;28;20479;-70
2022/12/18 09:51:14;;;;;;;30.30;7.97;;;-4.80;99.90;;;;;;4953448;28;20076;-70
2022/12/18 09:53:44;;;;;;;11.25;7.80;;;-3.90;99.90;;;;;;4952090;28;21091;-70
2022/12/18 09:56:18;;;;;;;23.67;8.32;;;-3.00;99.90;;;;;;4952875;29;20046;-69
2022/12/18 09:59:01;;;;;;;25.48;8.90;;;-2.30;99.90;;;;;;4952137;28;20077;-69
2022/12/18 10:01:29;;;;;;;21.52;9.80;;;-1.60;99.90;;;;;;4968413;28;20686;-71
2022/12/18 10:03:55;;;;;;;30.30;10.10;;;-1.50;99.90;;;;;;4956291;28;20043;-72
2022/12/18 10:06:42;;;;;;;18.10;11.43;;;-0.50;99.90;;;;;;4950535;29;20035;-72
2022/12/18 10:09:41;;;;;;;36.80;11.25;;;0.30;99.90;;;;;;4950245;28;20415;-70
2022/12/18 10:12:10;;;;;;;18.40;13.40;;;0.70;99.90;;;;;;4944018;28;20102;-73
2022/12/18 10:15:32;;;;;;;37.83;13.38;;;0.80;99.90;;;;;;4947079;29;20035;-70
2022/12/18 10:18:15;;;;;;;20.05;10.15;;;0.70;99.90;;;;;;4946893;28;20074;-71
2022/12/18 10:20:48;;;;;;;16.75;9.00;;;1.60;99.90;;;;;;4951701;28;20038;-71
2022/12/18 10:23:37;;;;;;;34.92;11.32;;;1.30;99.90;;;;;;4950053;28;20066;-69
2022/12/18 10:26:10;;;;;;;31.40;11.82;;;1.50;99.90;;;;;;4947445;29;20027;-69
2022/12/18 10:28:41;;;;;;;26.20;11.18;;;2.10;99.90;;;;;;4950251;28;20035;-71
2022/12/18 10:31:16;;;;;;;32.85;10.95;;;2.30;99.90;;;;;;4947508;28;20051;-70
2022/12/18 10:33:42;;;;;;;26.85;11.32;;;2.50;99.90;;;;;;4946167;28;20035;-71
2022/12/18 10:36:08;;;;;;;33.20;10.88;;;1.80;99.90;;;;;;4953352;28;20400;-70
2022/12/18 10:38:34;;;;;;;25.33;10.63;;;2.00;99.90;;;;;;4949125;28;20038;-73
2022/12/18 10:41:26;;;;;;;31.33;11.73;;;1.80;99.90;;;;;;4958295;28;20045;-71
2022/12/18 10:44:26;;;;;;;29.35;12.30;;;-0.10;99.90;;;;;;4948645;28;20047;-72
2022/12/18 10:47:02;;;;;;;30.67;11.40;;;0.90;99.90;;;;;;4949868;29;20058;-72
2022/12/18 10:49:32;;;;;;;45.45;13.60;;;0.70;99.90;;;;;;4949427;29;20031;-72
2022/12/18 10:52:25;;;;;;;41.60;13.38;;;1.00;99.90;;;;;;4951573;28;20491;-74
2022/12/18 10:55:04;;;;;;;26.58;13.40;;;1.80;99.90;;;;;;4948267;29;20228;-73
2022/12/18 10:57:40;;;;;;;25.42;11.75;;;1.90;99.90;;;;;;4949012;28;20063;-73
2022/12/18 11:00:28;;;;;;;26.25;11.32;;;1.90;99.90;;;;;;4946938;29;20037;-72
2022/12/18 11:02:56;;;;;;;34.22;11.73;;;2.30;99.90;;;;;;4949823;28;20034;-71
2022/12/18 11:05:36;;;;;;;30.08;12.38;;;2.80;99.90;;;;;;4950848;29;20057;-61
2022/12/18 11:08:02;;;;;;;34.78;12.85;;;2.80;99.90;;;;;;4949436;28;20042;-73
2022/12/18 11:10:39;;;;;;;44.10;14.50;;;2.50;99.90;;;;;;4950044;29;20035;-73
2022/12/18 11:13:18;;;;;;;36.28;13.02;;;3.10;99.70;;;;;;4950014;28;20035;-73
2022/12/18 11:15:44;;;;;;;36.53;14.32;;;3.30;99.10;;;;;;4951429;28;20102;-75
2022/12/18 11:18:39;;;;;;;37.75;15.73;;;3.60;99.40;;;;;;4950132;28;20027;-75
2022/12/18 11:21:12;;;;;;;35.05;15.02;;;2.60;98.40;;;;;;4953244;28;20454;-74
2022/12/18 11:23:51;;;;;;;56.92;14.85;;;2.80;99.90;;;;;;4949973;28;20046;-75
2022/12/18 11:26:18;;;;;;;41.80;14.85;;;3.30;99.90;;;;;;4950009;29;20086;-76
2022/12/18 11:29:15;;;;;;;37.50;13.52;;;3.50;99.50;;;;;;4950510;28;20398;-76
2022/12/18 11:31:41;;;;;;;33.22;14.75;;;4.10;99.10;;;;;;4951745;28;20038;-74
2022/12/18 11:34:27;;;;;;;34.22;13.52;;;4.10;97.40;;;;;;4950577;28;20035;-72
2022/12/18 11:36:54;;;;;;;33.08;13.75;;;3.80;98.20;;;;;;4935038;29;20023;-76
2022/12/18 11:39:37;;;;;;;44.35;13.98;;;1.40;99.90;;;;;;4950459;28;20023;-71
2022/12/18 11:42:15;;;;;;;34.13;13.25;;;1.40;99.90;;;;;;4941775;28;20435;-73
2022/12/18 11:45:11;;;;;;;45.50;15.23;;;2.00;99.90;;;;;;4966141;28;20051;-72
2022/12/18 11:47:45;;;;;;;52.20;15.13;;;2.50;99.90;;;;;;4948246;28;20036;-76
2022/12/18 11:50:28;;;;;;;41.25;13.93;;;2.00;99.90;;;;;;4949953;29;20725;-75
2022/12/18 11:52:54;;;;;;;40.40;15.35;;;2.10;99.90;;;;;;4945119;28;20047;-68
2022/12/18 11:55:50;;;;;;;33.78;15.80;;;3.20;99.90;;;;;;4952073;28;20502;-79
2022/12/18 11:58:43;;;;;;;29.92;12.55;;;2.10;99.90;;;;;;4954236;28;20039;-79
2022/12/18 12:01:51;;;;;;;28.98;12.50;;;2.80;99.90;;;;;;4953777;28;20066;-77
2022/12/18 12:04:35;;;;;;;31.75;12.75;;;2.30;99.90;;;;;;4951011;28;20035;-80
2022/12/18 12:07:09;;;;;;;40.38;16.05;;;2.50;99.90;;;;;;4956797;28;20031;-75
2022/12/18 12:10:13;;;;;;;34.42;13.18;;;2.40;99.90;;;;;;4954377;28;20031;-73
2022/12/18 12:13:04;;;;;;;41.53;14.38;;;3.00;99.90;;;;;;4949494;28;20093;-72
2022/12/18 12:15:52;;;;;;;32.17;13.23;;;2.70;99.90;;;;;;4955523;29;20062;-76
2022/12/18 12:18:41;;;;;;;40.42;16.73;;;2.30;99.90;;;;;;4954266;28;20066;-73
2022/12/18 12:21:40;;;;;;;32.50;13.25;;;0.60;99.90;;;;;;4955187;28;20098;-73
2022/12/18 12:24:28;;;;;;;30.70;14.02;;;0.70;99.90;;;;;;4953496;28;20035;-71
2022/12/18 12:27:24;;;;;;;34.38;14.13;;;1.20;99.90;;;;;;4969103;28;20031;-76
2022/12/18 12:30:09;;;;;;;37.25;11.60;;;1.50;99.90;;;;;;4947618;28;20066;-74
2022/12/18 12:32:46;;;;;;;31.88;11.70;;;1.60;99.90;;;;;;4953426;28;20491;-77
2022/12/18 12:35:28;;;;;;;32.15;12.75;;;1.30;99.90;;;;;;4951554;29;20038;-76
2022/12/18 12:38:16;;;;;;;24.85;13.55;;;0.40;99.90;;;;;;4948672;28;20042;-76
2022/12/18 12:40:53;;;;;;;32.80;11.70;;;0.50;99.90;;;;;;4953416;28;20043;-74
2022/12/18 12:43:42;;;;;;;37.05;11.90;;;-0.40;99.90;;;;;;4953674;28;20050;-75
2022/12/18 12:46:15;;;;;;;18.05;9.52;;;-0.40;99.90;;;;;;4950015;28;20407;-73
2022/12/18 12:48:52;;;;;;;38.33;13.15;;;-0.70;99.90;;;;;;4940385;28;20043;-76
2022/12/18 12:51:31;;;;;;;24.10;11.57;;;-0.40;99.90;;;;;;4951025;28;20038;-73
2022/12/18 12:54:00;;;;;;;31.27;12.75;;;-0.20;99.90;;;;;;4955517;28;20031;-74
2022/12/18 12:57:03;;;;;;;23.83;10.88;;;-0.40;99.90;;;;;;4953498;29;20031;-78
2022/12/18 12:59:47;;;;;;;19.25;10.38;;;-0.50;99.90;;;;;;4937986;29;20035;-72
2022/12/18 13:02:52;;;;;;;15.85;8.60;;;-0.80;99.90;;;;;;4936967;23;20064;-66
2022/12/18 13:05:41;;;;;;;21.25;11.77;;;-0.40;99.90;;;;;;4885244;29;20032;-68
2022/12/18 13:08:22;;;;;;;22.38;11.00;;;-0.30;99.90;;;;;;4904882;29;20465;-64
2022/12/18 13:10:48;;;;;;;24.65;10.88;;;-0.90;99.90;;;;;;4863595;29;20463;-70
2022/12/18 13:13:15;;;;;;;25.48;11.57;;;-1.10;99.90;;;;;;4903572;29;20032;-71
2022/12/18 13:16:06;;;;;;;27.17;10.55;;;-1.20;99.90;;;;;;4897842;29;20056;-71